Time;durP1;ratioP1;P1;durP2;ratioP2;P2;SDS_P1;SDS_P2;PMS_P1;PMS_P2;Temp;Humidity;BMP_temperature;BMP_pressure;BME280_temperature;BME280_humidity;BME280_pressure;Samples;Min_cycle;Max_cycle;Signal;HPM_P1;HPM_P2
2022/08/28 00:00:28;;;;;;;13.02;6.53;;;;;;;13.27;100.00;164035.22;4989674;28;20042;-72
2022/08/28 00:02:55;;;;;;;12.90;7.43;;;;;;;13.26;100.00;164031.16;4991906;28;20053;-72
2022/08/28 00:05:23;;;;;;;10.80;6.70;;;;;;;13.23;100.00;164024.38;4989805;28;20085;-72
2022/08/28 00:07:49;;;;;;;17.48;8.25;;;;;;;13.24;100.00;164025.78;4991421;28;20034;-72
2022/08/28 00:10:17;;;;;;;18.35;8.07;;;;;;;13.26;100.00;164031.16;4990427;28;20104;-72
2022/08/28 00:12:43;;;;;;;18.00;7.57;;;;;;;13.23;100.00;164024.38;4991077;28;20018;-71
2022/08/28 00:15:15;;;;;;;22.88;8.90;;;;;;;13.19;100.00;164013.59;4992605;28;20051;-71
2022/08/28 00:17:41;;;;;;;17.13;7.55;;;;;;;13.19;100.00;164013.59;4995440;28;20041;-71
2022/08/28 00:20:08;;;;;;;25.58;7.95;;;;;;;13.22;100.00;164020.34;4993891;28;20053;-71
2022/08/28 00:22:35;;;;;;;11.00;8.47;;;;;;;13.21;100.00;164019.03;4995608;28;20433;-71
2022/08/28 00:25:00;;;;;;;15.95;7.93;;;;;;;13.20;100.00;164016.31;4994261;28;20038;-71
2022/08/28 00:30:09;;;;;;;13.45;8.38;;;;;;;13.15;100.00;164002.75;4993875;28;20128;-70
2022/08/28 00:32:34;;;;;;;21.83;9.63;;;;;;;13.14;100.00;164000.09;4995485;28;20065;-71
2022/08/28 00:35:01;;;;;;;15.38;7.30;;;;;;;13.12;100.00;163994.66;4993568;28;20042;-71
2022/08/28 00:37:27;;;;;;;17.98;7.50;;;;;;;13.11;100.00;163991.97;4995045;28;20045;-67
2022/08/28 00:39:53;;;;;;;13.88;8.45;;;;;;;13.08;100.00;163985.22;4993827;28;20409;-63
2022/08/28 00:42:19;;;;;;;17.02;9.02;;;;;;;13.08;100.00;163983.81;4994893;28;20524;-68
2022/08/28 00:44:45;;;;;;;15.88;8.25;;;;;;;13.06;100.00;163978.47;4993769;28;20133;-67
2022/08/28 00:47:10;;;;;;;14.68;8.55;;;;;;;13.02;100.00;163970.31;4995185;28;20098;-67
2022/08/28 00:49:44;;;;;;;12.73;7.50;;;;;;;12.98;100.00;163958.16;4993213;28;20387;-67
2022/08/28 00:52:11;;;;;;;12.32;7.85;;;;;;;12.91;100.00;163939.22;4994992;28;20034;-68
2022/08/28 00:55:02;;;;;;;14.98;7.68;;;;;;;12.78;100.00;163906.81;4993474;28;20204;-67
2022/08/28 00:57:34;;;;;;;10.75;7.60;;;;;;;12.67;100.00;163878.44;4994165;28;20037;-68
2022/08/28 01:00:00;;;;;;;18.05;8.57;;;;;;;12.60;100.00;163859.50;4993422;28;20038;-68
2022/08/28 01:02:26;;;;;;;18.88;8.95;;;;;;;12.47;100.00;163825.72;4995199;28;20026;-67
2022/08/28 01:04:51;;;;;;;15.32;8.13;;;;;;;12.38;100.00;163802.75;4993047;28;20416;-67
2022/08/28 01:07:17;;;;;;;16.55;7.85;;;;;;;12.31;100.00;163782.47;4994884;28;20422;-68
2022/08/28 01:09:49;;;;;;;15.18;9.02;;;;;;;12.22;100.00;163760.84;4993177;28;20046;-68
2022/08/28 01:12:19;;;;;;;22.45;11.15;;;;;;;12.16;100.00;163744.63;4994388;28;20027;-68
2022/08/28 01:14:47;;;;;;;13.20;7.57;;;;;;;12.06;100.00;163718.97;4993203;28;20042;-67
2022/08/28 01:17:16;;;;;;;19.20;8.65;;;;;;;12.02;100.00;163706.81;4994556;28;20045;-68
2022/08/28 01:19:51;;;;;;;17.73;8.30;;;;;;;11.90;100.00;163675.69;4992482;28;20421;-67
2022/08/28 01:22:44;;;;;;;16.38;8.57;;;;;;;11.75;100.00;163637.84;4994858;28;20069;-68
2022/08/28 01:25:15;;;;;;;18.95;9.68;;;;;;;11.70;100.00;163622.97;4993027;28;20042;-67
2022/08/28 01:27:41;;;;;;;15.45;8.82;;;;;;;11.66;100.00;163613.53;4993585;28;20488;-67
2022/08/28 01:30:12;;;;;;;14.80;8.55;;;;;;;11.57;100.00;163589.25;4992782;28;20461;-67
2022/08/28 01:32:43;;;;;;;11.90;9.70;;;;;;;11.47;100.00;163562.22;4994093;28;20488;-67
2022/08/28 01:35:14;;;;;;;15.68;9.65;;;;;;;11.37;100.00;163537.91;4992376;28;20047;-67
2022/08/28 01:37:40;;;;;;;20.00;10.00;;;;;;;11.25;100.00;163505.50;4994561;28;20429;-67
2022/08/28 01:40:08;;;;;;;19.20;9.50;;;;;;;11.29;100.00;163514.97;4992551;28;20038;-67
2022/08/28 01:42:38;;;;;;;16.03;10.53;;;;;;;11.23;100.00;163500.09;4993908;28;20046;-67
2022/08/28 01:45:05;;;;;;;22.27;11.02;;;;;;;11.15;100.00;163478.47;4992629;28;20457;-67
2022/08/28 01:47:30;;;;;;;21.23;12.88;;;;;;;11.04;100.00;163451.50;4993826;28;20093;-67
2022/08/28 01:49:55;;;;;;;18.38;10.88;;;;;;;10.97;100.00;163432.63;4992239;28;20046;-67
2022/08/28 01:52:21;;;;;;;17.00;11.55;;;;;;;10.89;100.00;163411.00;4994246;28;20026;-69
2022/08/28 01:54:46;;;;;;;20.30;13.75;;;;;;;10.83;100.00;163394.81;4991911;28;20057;-67
2022/08/28 01:57:11;;;;;;;20.20;12.20;;;;;;;10.76;100.00;163377.25;4993630;28;20042;-67
2022/08/28 01:59:37;;;;;;;20.08;11.38;;;;;;;10.68;100.00;163357.03;4992191;28;20038;-66
2022/08/28 02:02:03;;;;;;;17.10;11.30;;;;;;;10.63;100.00;163343.50;4993794;28;20033;-67
2022/08/28 02:04:28;;;;;;;19.50;12.43;;;;;;;10.60;100.00;163335.41;4991995;28;20398;-66
2022/08/28 02:06:54;;;;;;;18.50;11.63;;;;;;;10.56;100.00;163325.97;4993766;28;20027;-67
2022/08/28 02:09:20;;;;;;;16.85;12.30;;;;;;;10.50;100.00;163308.41;4992087;28;20049;-69
2022/08/28 02:11:45;;;;;;;15.75;11.60;;;;;;;10.43;100.00;163292.22;4993102;28;20030;-68
2022/08/28 02:14:10;;;;;;;18.55;11.23;;;;;;;10.36;100.00;163271.91;4991908;28;20045;-68
2022/08/28 02:16:36;;;;;;;16.55;13.10;;;;;;;10.28;100.00;163251.66;4993397;28;20019;-66
2022/08/28 02:19:01;;;;;;;23.73;12.63;;;;;;;10.24;100.00;163240.91;4991854;28;20045;-65
2022/08/28 02:21:27;;;;;;;21.63;12.35;;;;;;;10.17;100.00;163223.34;4993108;28;20031;-65
2022/08/28 02:23:52;;;;;;;13.85;11.50;;;;;;;10.10;100.00;163205.78;4991785;28;20033;-65
2022/08/28 02:26:18;;;;;;;22.35;14.32;;;;;;;10.07;100.00;163197.69;4993187;28;20022;-66
2022/08/28 02:28:43;;;;;;;26.65;13.40;;;;;;;10.08;100.00;163200.41;4991667;28;20022;-66
2022/08/28 02:31:09;;;;;;;16.50;11.55;;;;;;;10.08;100.00;163200.41;4993154;28;20498;-66
2022/08/28 02:33:40;;;;;;;17.38;11.32;;;;;;;10.05;100.00;163192.28;4992429;28;20038;-66
2022/08/28 02:36:07;;;;;;;19.20;12.05;;;;;;;10.00;100.00;163178.81;4972225;28;20506;-66
2022/08/28 02:38:33;;;;;;;18.27;12.27;;;;;;;9.97;100.00;163170.69;4972782;28;20062;-66
2022/08/28 02:40:58;;;;;;;22.08;12.55;;;;;;;9.95;100.00;163165.28;4983425;28;20092;-66
2022/08/28 02:43:23;;;;;;;32.53;14.93;;;;;;;9.91;100.00;163155.84;4993169;28;20080;-66
2022/08/28 02:45:49;;;;;;;20.85;13.07;;;;;;;9.91;100.00;163154.50;4991525;28;20039;-66
2022/08/28 02:48:14;;;;;;;16.10;10.82;;;;;;;9.90;100.00;163151.81;4992559;28;20639;-66
2022/08/28 02:50:39;;;;;;;11.05;9.95;;;;;;;9.89;100.00;163149.09;4991255;28;20043;-65
2022/08/28 02:53:05;;;;;;;11.57;9.38;;;;;;;9.84;100.00;163138.34;4992471;28;20536;-64
2022/08/28 02:55:30;;;;;;;12.75;8.38;;;;;;;9.81;100.00;163130.22;4990833;28;20465;-64
2022/08/28 02:57:56;;;;;;;17.30;11.27;;;;;;;9.72;100.00;163105.91;4992687;28;20030;-64
2022/08/28 03:00:24;;;;;;;9.85;8.85;;;;;;;9.70;100.00;163100.56;4991199;28;20413;-64
2022/08/28 03:02:50;;;;;;;75.95;12.02;;;;;;;9.71;100.00;163103.25;4992413;28;20101;-64
2022/08/28 03:05:19;;;;;;;12.57;10.35;;;;;;;9.69;100.00;163097.84;4991218;28;20506;-64
2022/08/28 03:07:45;;;;;;;21.55;12.15;;;;;;;9.66;100.00;163089.75;4991978;28;20544;-64
2022/08/28 03:10:10;;;;;;;15.05;9.30;;;;;;;9.64;100.00;163084.38;4990903;28;20046;-64
2022/08/28 03:12:37;;;;;;;16.38;11.85;;;;;;;9.61;100.00;163076.28;4992186;28;20033;-64
2022/08/28 03:15:02;;;;;;;11.05;8.95;;;;;;;9.53;100.00;163057.38;4990961;28;20042;-69
2022/08/28 03:17:28;;;;;;;12.35;8.63;;;;;;;9.55;100.00;163061.41;4991860;28;20022;-64
2022/08/28 03:19:53;;;;;;;19.92;11.63;;;;;;;9.51;100.00;163051.97;4990793;28;20038;-69
2022/08/28 03:23:24;;;;;;;20.48;12.52;;;;;;;9.45;100.00;163034.47;4992094;28;20049;-69
2022/08/28 03:25:08;;;;;;;8.57;7.75;;;;;;;9.47;100.00;163041.22;4990474;28;20044;-69
2022/08/28 03:27:33;;;;;;;16.70;10.63;;;;;;;9.44;100.00;163031.75;4992051;28;20030;-69
2022/08/28 03:29:58;;;;;;;25.30;8.45;;;;;;;9.38;100.00;163016.91;4990787;28;20064;-68
2022/08/28 03:32:25;;;;;;;15.38;6.28;;;;;;;9.33;100.00;163003.44;4991906;28;20030;-69
2022/08/28 03:34:52;;;;;;;14.40;9.38;;;;;;;9.26;100.00;162984.56;4990302;28;20096;-68
2022/08/28 03:37:18;;;;;;;20.27;8.40;;;;;;;9.17;100.00;162962.97;4992456;28;20030;-69
2022/08/28 03:39:43;;;;;;;33.17;6.95;;;;;;;9.12;100.00;162948.13;4989993;28;20116;-68
2022/08/28 03:42:09;;;;;;;8.15;7.45;;;;;;;9.05;100.00;162930.59;4991889;28;20480;-63
2022/08/28 03:44:37;;;;;;;7.78;5.38;;;;;;;8.91;100.00;162894.22;4990606;28;20113;-68
2022/08/28 03:47:03;;;;;;;6.10;5.50;;;;;;;8.92;100.00;162895.53;4991256;28;20081;-68
2022/08/28 03:49:29;;;;;;;113.00;10.00;;;;;;;8.89;100.00;162888.81;4989427;28;20620;-68
2022/08/28 03:51:55;;;;;;;10.45;8.70;;;;;;;8.83;100.00;162873.94;4992135;28;20026;-68
2022/08/28 03:54:20;;;;;;;8.63;7.70;;;;;;;8.79;100.00;162861.81;4990014;28;20045;-68
2022/08/28 03:56:46;;;;;;;120.72;9.90;;;;;;;8.77;100.00;162856.47;4991643;28;20026;-67
2022/08/28 03:59:11;;;;;;;52.53;6.18;;;;;;;8.72;100.00;162845.66;4990679;28;20038;-67
2022/08/28 04:01:37;;;;;;;51.90;8.15;;;;;;;8.67;100.00;162830.84;4990653;28;20030;-67
2022/08/28 04:04:03;;;;;;;14.73;7.88;;;;;;;8.64;100.00;162822.75;4990544;28;20073;-67
2022/08/28 04:06:28;;;;;;;21.67;4.88;;;;;;;8.67;100.00;162830.84;4991415;28;20030;-63
2022/08/28 04:08:54;;;;;;;12.32;7.70;;;;;;;8.66;100.00;162828.16;4989871;28;20029;-63
2022/08/28 04:11:20;;;;;;;23.88;9.75;;;;;;;8.66;100.00;162828.16;4991974;28;20026;-63
2022/08/28 04:13:45;;;;;;;14.60;8.75;;;;;;;8.64;100.00;162822.75;4990187;28;20344;-63
2022/08/28 04:16:15;;;;;;;27.88;5.75;;;;;;;8.55;100.00;162801.16;4991107;28;20044;-65
2022/08/28 04:18:42;;;;;;;12.60;5.97;;;;;;;8.57;100.00;162806.56;4991375;28;20025;-65
2022/08/28 04:21:10;;;;;;;13.50;11.85;;;;;;;8.54;100.00;162797.16;4970832;28;20077;-65
2022/08/28 04:23:39;;;;;;;77.90;10.00;;;;;;;8.53;100.00;162795.75;4971371;28;20049;-65
2022/08/28 04:26:08;;;;;;;44.40;9.15;;;;;;;8.50;100.00;162787.72;4970869;28;20049;-65
2022/08/28 04:28:34;;;;;;;47.90;7.15;;;;;;;8.47;100.00;162779.59;4971718;28;20053;-65
2022/08/28 04:31:00;;;;;;;13.02;5.65;;;;;;;8.44;100.00;162771.50;4988416;28;20506;-65
2022/08/28 04:33:27;;;;;;;54.70;5.88;;;;;;;8.44;100.00;162771.50;4991437;28;20022;-64
2022/08/28 04:35:52;;;;;;;4.97;4.38;;;;;;;8.44;100.00;162770.13;4989784;28;20129;-64
2022/08/28 04:38:18;;;;;;;50.10;7.82;;;;;;;8.44;100.00;162770.13;4990992;28;20057;-64
2022/08/28 04:40:43;;;;;;;64.72;8.27;;;;;;;8.44;100.00;162771.50;4989729;28;20065;-64
2022/08/28 04:43:09;;;;;;;19.42;7.53;;;;;;;8.48;100.00;162782.28;4991702;28;20034;-65
2022/08/28 04:45:43;;;;;;;8.35;5.53;;;;;;;8.55;100.00;162801.16;4989187;28;20045;-65
2022/08/28 04:48:11;;;;;;;52.88;10.52;;;;;;;8.65;100.00;162825.44;4991418;28;20125;-71
2022/08/28 04:50:43;;;;;;;13.68;7.93;;;;;;;8.70;100.00;162838.91;4989707;28;20042;-69
2022/08/28 04:53:09;;;;;;;11.93;8.30;;;;;;;8.74;100.00;162849.72;4991081;28;20023;-69
2022/08/28 04:55:46;;;;;;;13.35;11.98;;;;;;;8.79;100.00;162863.19;4989699;28;20042;-70
2022/08/28 04:58:13;;;;;;;16.83;11.90;;;;;;;8.81;100.00;162867.22;4990865;28;20038;-69
2022/08/28 05:00:41;;;;;;;23.13;15.25;;;;;;;8.81;100.00;162868.59;4990889;28;20121;-68
2022/08/28 05:03:07;;;;;;;20.65;13.02;;;;;;;8.83;100.00;162872.63;4994919;28;20023;-68
2022/08/28 05:05:33;;;;;;;25.80;13.63;;;;;;;8.81;100.00;162868.59;4993001;28;20038;-62
2022/08/28 05:07:58;;;;;;;17.55;13.25;;;;;;;8.81;100.00;162868.59;4994160;28;20034;-63
2022/08/28 05:10:24;;;;;;;20.15;13.93;;;;;;;8.81;100.00;162868.59;4993409;28;20043;-63
2022/08/28 05:12:49;;;;;;;21.23;13.07;;;;;;;8.96;100.00;162907.69;4993756;28;20034;-63
2022/08/28 05:15:15;;;;;;;20.15;13.88;;;;;;;9.08;100.00;162937.38;4993007;28;20049;-63
2022/08/28 05:17:41;;;;;;;17.52;12.50;;;;;;;9.17;100.00;162962.97;4992703;28;20049;-63
2022/08/28 05:20:06;;;;;;;16.88;12.25;;;;;;;9.29;100.00;162994.00;4991681;28;20042;-63
2022/08/28 05:22:32;;;;;;;17.20;11.60;;;;;;;9.39;100.00;163018.25;4993822;28;20113;-64
2022/08/28 05:24:59;;;;;;;19.73;13.35;;;;;;;9.50;100.00;163049.28;4992944;28;20038;-63
2022/08/28 05:27:25;;;;;;;16.38;11.15;;;;;;;9.60;100.00;163073.56;4993662;28;20034;-68
2022/08/28 05:29:51;;;;;;;16.88;10.00;;;;;;;9.68;100.00;163096.47;4991023;28;20058;-68
2022/08/28 05:32:17;;;;;;;19.40;11.10;;;;;;;9.78;100.00;163122.16;4993563;28;20030;-67
2022/08/28 05:34:42;;;;;;;22.35;11.57;;;;;;;9.91;100.00;163155.84;4999559;28;20042;-68
2022/08/28 05:37:08;;;;;;;17.08;13.65;;;;;;;10.05;100.00;163192.28;4996513;28;20610;-68
2022/08/28 05:39:33;;;;;;;22.00;11.68;;;;;;;10.13;100.00;163213.88;4991960;28;20423;-65
2022/08/28 05:41:59;;;;;;;18.67;13.05;;;;;;;10.24;100.00;163240.91;4992007;28;20034;-65
2022/08/28 05:44:24;;;;;;;15.57;12.27;;;;;;;10.35;100.00;163270.56;4990223;28;20402;-65
2022/08/28 05:46:50;;;;;;;25.70;15.98;;;;;;;10.46;100.00;163300.28;4992624;28;20098;-65
2022/08/28 05:49:18;;;;;;;18.35;11.82;;;;;;;10.55;100.00;163321.88;4991241;28;20038;-65
2022/08/28 05:51:44;;;;;;;15.77;13.13;;;;;;;10.60;100.00;163335.41;4993161;28;20030;-65
2022/08/28 05:54:10;;;;;;;26.75;14.30;;;;;;;10.67;100.00;163354.31;4991633;28;20038;-66
2022/08/28 05:56:38;;;;;;;18.50;12.77;;;;;;;10.72;100.00;163367.78;4992270;28;20106;-69
2022/08/28 05:59:05;;;;;;;17.35;12.38;;;;;;;10.78;100.00;163384.00;4991591;28;20060;-68
2022/08/28 06:01:34;;;;;;;17.33;12.70;;;;;;;10.82;100.00;163392.09;4992693;28;20057;-68
2022/08/28 06:04:01;;;;;;;18.40;11.27;;;;;;;10.82;100.00;163392.09;4991071;28;20022;-68
2022/08/28 06:06:29;;;;;;;21.77;12.82;;;;;;;10.81;100.00;163389.41;4992590;28;20394;-68
2022/08/28 06:09:00;;;;;;;18.08;11.30;;;;;;;10.79;100.00;163386.69;4991459;28;20033;-68
2022/08/28 06:11:28;;;;;;;23.73;12.63;;;;;;;10.88;100.00;163408.28;4991092;28;20112;-68
2022/08/28 06:13:53;;;;;;;34.42;17.02;;;;;;;10.94;100.00;163424.50;4992667;28;20033;-68
2022/08/28 06:16:19;;;;;;;24.23;13.32;;;;;;;10.98;100.00;163435.31;5008856;28;20434;-68
2022/08/28 06:18:45;;;;;;;17.92;12.85;;;;;;;11.09;100.00;163465.00;4990140;28;20026;-68
2022/08/28 06:21:11;;;;;;;15.27;10.77;;;;;;;11.18;100.00;163487.94;4993235;28;20018;-68
2022/08/28 06:23:36;;;;;;;17.48;11.45;;;;;;;11.26;100.00;163509.56;4992136;28;20541;-68
2022/08/28 06:26:04;;;;;;;18.25;10.82;;;;;;;11.36;100.00;163535.19;4990639;28;20045;-68
2022/08/28 06:28:29;;;;;;;14.40;10.50;;;;;;;11.52;100.00;163575.72;4992026;28;20042;-68
2022/08/28 06:30:55;;;;;;;18.15;11.30;;;;;;;11.64;100.00;163608.16;4990679;28;20128;-69
2022/08/28 06:33:21;;;;;;;26.77;12.85;;;;;;;11.80;100.00;163650.03;4992143;28;20041;-68
2022/08/28 06:35:49;;;;;;;14.05;10.60;;;;;;;11.94;100.00;163686.50;4990477;28;20042;-69
2022/08/28 06:38:16;;;;;;;17.55;14.95;;;;;;;12.10;100.00;163727.09;4992207;28;20031;-68
2022/08/28 06:40:46;;;;;;;13.35;9.77;;;;;;;12.26;100.00;163770.28;4989245;28;20413;-59
2022/08/28 06:43:12;;;;;;;14.50;9.60;;;;;;;12.44;100.00;163817.59;4991918;28;20485;-63
2022/08/28 06:45:41;;;;;;;14.95;8.07;;;;;;;12.60;100.00;163859.50;4971007;28;20046;-64
2022/08/28 06:48:07;;;;;;;17.50;9.18;;;;;;;12.81;100.00;163913.56;4972440;28;20018;-64
2022/08/28 06:50:32;;;;;;;14.07;8.63;;;;;;;12.95;100.00;163950.06;4971222;28;20197;-64
2022/08/28 06:52:58;;;;;;;16.85;8.50;;;;;;;13.15;100.00;164002.75;4984165;28;20506;-62
2022/08/28 06:55:24;;;;;;;18.20;7.90;;;;;;;13.29;100.00;164039.28;4990263;28;20063;-62
2022/08/28 06:57:49;;;;;;;18.83;7.63;;;;;;;13.44;100.00;164079.91;4991961;28;20034;-63
2022/08/28 07:00:15;;;;;;;18.90;9.38;;;;;;;13.62;100.00;164127.22;4989669;28;20100;-63
2022/08/28 07:02:40;;;;;;;14.50;7.03;;;;;;;13.83;100.00;164181.31;4991107;28;20030;-63
2022/08/28 07:05:07;;;;;;;11.07;7.18;;;;;;;14.04;100.00;164236.78;4990536;28;20038;-62
2022/08/28 07:07:32;;;;;;;14.15;6.30;;;;;;;14.22;100.00;164284.13;4991718;28;20026;-62
2022/08/28 07:09:58;;;;;;;16.08;6.55;;;;;;;14.40;100.00;164330.13;4989794;28;20038;-62
2022/08/28 07:12:23;;;;;;;14.20;6.13;;;;;;;14.58;100.00;164378.81;4991962;28;20077;-62
2022/08/28 07:14:48;;;;;;;10.88;5.50;;;;;;;14.84;100.00;164446.53;4989859;28;20039;-62
2022/08/28 07:17:14;;;;;;;9.98;5.93;;;;;;;15.21;100.00;164544.00;4990914;28;20018;-62
2022/08/28 07:19:39;;;;;;;12.55;5.25;;;;;;;15.71;100.00;164673.94;4989647;28;20053;-62
2022/08/28 07:22:04;;;;;;;12.40;5.57;;;;;;;16.31;100.00;164831.06;4991408;28;20044;-62
2022/08/28 07:24:30;;;;;;;10.98;5.13;;;;;;;16.95;100.00;164999.06;4989187;28;20038;-62
2022/08/28 07:26:55;;;;;;;6.72;3.83;;;;;;;17.64;100.00;165180.69;4991587;28;20387;-62
2022/08/28 07:29:21;;;;;;;16.38;4.47;;;;;;;17.95;100.00;165262.06;4989882;28;20116;-62
2022/08/28 07:31:52;;;;;;;7.00;2.47;;;;;;;18.55;100.00;165419.34;4990896;28;20030;-62
2022/08/28 07:34:19;;;;;;;12.43;3.95;;;;;;;18.72;100.00;165464.09;4990306;28;20061;-62
2022/08/28 07:36:46;;;;;;;8.80;2.67;;;;;;;18.54;100.00;165417.97;4990798;28;20029;-63
2022/08/28 07:39:13;;;;;;;6.25;3.38;;;;;;;17.93;100.00;165256.59;4988942;28;20129;-62
2022/08/28 07:41:41;;;;;;;8.23;4.13;;;;;;;17.83;100.00;165229.50;4990769;28;20026;-63
2022/08/28 07:46:58;;;;;;;10.68;2.60;;;;;;;18.53;100.00;165413.91;4997034;28;20037;-63
2022/08/28 07:49:24;;;;;;;17.08;4.10;;;;;;;18.98;100.00;165533.31;4987369;28;20440;-62
2022/08/28 07:51:50;;;;;;;15.15;3.60;;;;;;;19.33;100.00;165625.56;4990178;28;20030;-63
2022/08/28 07:54:16;;;;;;;12.35;4.45;;;;;;;19.42;100.00;165647.25;4990081;28;20406;-62
2022/08/28 07:56:41;;;;;;;13.68;3.55;;;;;;;20.03;100.00;165808.78;4990692;28;20037;-62
2022/08/28 07:59:09;;;;;;;8.70;3.25;;;;;;;19.46;100.00;165659.47;4988935;28;20050;-62
2022/08/28 08:01:37;;;;;;;;;;;;;;;19.10;100.00;165563.19;4991349;28;20034;-62
2022/08/28 08:04:06;;;;;;;4.97;2.78;;;;;;;18.86;100.00;165500.72;4970787;28;19914;-62
2022/08/28 08:06:32;;;;;;;9.77;3.00;;;;;;;18.54;100.00;165416.63;4971666;28;20566;-62
2022/08/28 08:08:57;;;;;;;12.55;3.28;;;;;;;18.63;100.00;165441.06;4988916;28;20022;-62
2022/08/28 08:11:22;;;;;;;8.30;2.40;;;;;;;18.48;100.00;165400.38;4991292;28;20449;-61
2022/08/28 08:13:48;;;;;;;7.45;2.67;;;;;;;18.28;100.00;165348.81;4988902;28;20085;-61
2022/08/28 08:16:18;;;;;;;10.63;2.25;;;;;;;18.48;100.00;165400.38;4991318;28;20026;-61
2022/08/28 08:18:44;;;;;;;4.70;2.25;;;;;;;18.77;100.00;165476.31;4989621;28;20031;-61
2022/08/28 08:21:12;;;;;;;13.93;4.65;;;;;;;18.60;100.00;165432.91;4990805;28;20577;-61
2022/08/28 08:23:38;;;;;;;7.85;2.95;;;;;;;18.43;100.00;165386.81;4990934;28;20031;-62
2022/08/28 08:26:07;;;;;;;11.18;3.13;;;;;;;18.37;100.00;165371.91;4989553;28;20034;-62
2022/08/28 08:28:33;;;;;;;;;;;;;;;18.65;100.00;165446.44;4990794;28;20494;-61
2022/08/28 08:31:02;;;;;;;5.90;1.92;;;;;;;18.85;100.00;165498.00;4989062;28;19928;-61
2022/08/28 08:33:27;;;;;;;11.23;3.83;;;;;;;18.68;100.00;165454.59;4990841;28;20033;-62
2022/08/28 08:35:53;;;;;;;6.05;2.63;;;;;;;18.69;100.00;165456.00;4998650;28;20410;-61
2022/08/28 08:38:18;;;;;;;13.75;3.00;;;;;;;18.77;100.00;165476.31;4986321;28;20390;-61
2022/08/28 08:40:44;;;;;;;9.70;2.42;;;;;;;18.89;100.00;165508.84;4992351;28;20042;-60
2022/08/28 08:43:10;;;;;;;12.02;2.75;;;;;;;19.10;100.00;165563.19;4994526;28;20030;-63
2022/08/28 08:45:38;;;;;;;5.38;2.10;;;;;;;19.19;100.00;165587.56;4993016;28;20121;-62
2022/08/28 08:48:04;;;;;;;;;;;;;;;19.24;100.00;165601.16;4994994;28;20033;-62
2022/08/28 08:50:33;;;;;;;6.55;2.70;;;;;;;19.11;100.00;165565.84;4992194;28;20377;-62
2022/08/28 08:53:22;;;;;;;8.13;2.67;;;;;;;19.24;100.00;165601.16;4993973;28;20042;-61
2022/08/28 08:55:53;;;;;;;11.40;2.30;;;;;;;19.10;100.00;165563.19;4992505;28;20129;-66
2022/08/28 08:58:31;;;;;;;11.40;5.40;;;;;;;18.94;100.00;165522.50;4994368;28;20026;-61
2022/08/28 09:01:15;;;;;;;7.22;2.05;;;;;;;19.07;100.00;165556.38;4993024;28;20038;-61
2022/08/28 09:03:44;;;;;;;5.47;1.52;;;;;;;19.09;100.00;165560.47;4994655;28;20084;-61
2022/08/28 09:06:20;;;;;;;7.30;2.65;;;;;;;19.28;100.00;165612.00;4992885;28;20054;-61
2022/08/28 09:08:51;;;;;;;5.28;1.98;;;;;;;19.44;100.00;165652.72;4992804;28;20533;-61
2022/08/28 09:11:43;;;;;;;12.05;2.80;;;;;;;19.32;100.00;165621.50;4994456;28;20022;-61
2022/08/28 09:14:19;;;;;;;7.20;2.50;;;;;;;18.90;100.00;165511.56;4993122;28;20053;-61
2022/08/28 09:16:45;;;;;;;6.22;1.92;;;;;;;19.12;100.00;165568.59;4994060;28;20133;-61
2022/08/28 09:19:15;;;;;;;7.88;3.00;;;;;;;19.24;100.00;165599.78;4992704;28;20093;-62
2022/08/28 09:21:43;;;;;;;14.85;1.98;;;;;;;19.30;100.00;165616.06;4993882;28;20109;-61
2022/08/28 09:24:21;;;;;;;13.80;3.83;;;;;;;19.53;100.00;165677.13;4992783;28;20466;-61
2022/08/28 09:26:56;;;;;;;10.82;3.60;;;;;;;19.53;100.00;165677.13;4993625;28;20034;-62
2022/08/28 09:29:37;;;;;;;4.07;2.53;;;;;;;19.48;100.00;165663.53;4992848;28;20086;-62
2022/08/28 09:32:21;;;;;;;5.55;2.03;;;;;;;19.63;100.00;165704.25;4994577;28;20027;-61
2022/08/28 09:35:07;;;;;;;6.80;1.83;;;;;;;19.45;100.00;165655.44;4991933;28;20030;-61
2022/08/28 09:37:34;;;;;;;6.18;2.22;;;;;;;19.05;100.00;165549.59;4993099;28;20474;-61
2022/08/28 09:40:18;;;;;;;5.68;2.47;;;;;;;19.21;100.00;165593.00;4992390;28;20104;-61
2022/08/28 09:46:20;;;;;;;3.15;1.92;;;;;;;19.62;100.00;165701.53;4992139;28;20806;-61
2022/08/28 09:48:47;;;;;;;6.78;1.85;;;;;;;20.10;100.00;165826.44;4993211;28;20068;-61
2022/08/28 09:51:21;;;;;;;6.93;1.90;;;;;;;20.41;100.00;165907.88;4992197;28;20507;-61
2022/08/28 09:53:49;;;;;;;6.47;2.78;;;;;;;20.39;100.00;165903.84;4993366;28;20034;-61
2022/08/28 09:56:27;;;;;;;2.58;1.30;;;;;;;20.43;100.00;165913.34;4991843;28;20038;-61
2022/08/28 09:58:58;;;;;;;7.90;2.17;;;;;;;20.66;100.00;165973.06;4994015;28;20022;-61
2022/08/28 10:01:45;;;;;;;4.63;2.13;;;;;;;20.89;100.00;166035.53;4992084;28;20034;-61
2022/08/28 10:04:14;;;;;;;7.35;2.03;;;;;;;21.08;100.00;166084.44;4993323;28;20030;-61
2022/08/28 10:06:42;;;;;;;4.10;1.75;;;;;;;21.29;100.00;166138.75;4991580;28;20066;-61
2022/08/28 10:09:30;;;;;;;8.30;2.72;;;;;;;21.33;100.00;166149.63;4993533;28;20498;-60
2022/08/28 10:12:14;;;;;;;7.22;2.13;;;;;;;20.63;100.00;165966.25;4991712;28;20045;-60
2022/08/28 10:14:51;;;;;;;11.10;2.70;;;;;;;20.52;100.00;165937.72;4991560;28;20026;-60
2022/08/28 10:17:38;;;;;;;5.35;2.28;;;;;;;20.94;100.00;166046.44;4993574;28;20109;-60
2022/08/28 10:20:37;;;;;;;8.93;2.10;;;;;;;21.16;100.00;166106.16;4989713;28;20073;-60
2022/08/28 10:23:35;;;;;;;9.07;2.53;;;;;;;21.08;100.00;166084.44;4991311;28;20028;-60
2022/08/28 10:26:09;;;;;;;3.42;1.70;;;;;;;20.99;100.00;166059.97;4989571;28;20501;-60
2022/08/28 10:28:54;;;;;;;6.68;2.35;;;;;;;21.06;100.00;166079.00;4991177;28;20034;-60
2022/08/28 10:31:25;;;;;;;3.95;1.92;;;;;;;21.26;100.00;166130.63;4971187;28;20063;-60
2022/08/28 10:34:06;;;;;;;3.70;1.85;;;;;;;20.80;100.00;166011.13;4972026;28;20135;-60
2022/08/28 10:36:34;;;;;;;16.35;2.63;;;;;;;20.61;100.00;165962.19;4987640;28;20053;-60
2022/08/28 10:39:21;;;;;;;9.95;2.17;;;;;;;20.31;100.00;165880.72;4989740;28;20066;-60
2022/08/28 10:41:56;;;;;;;4.38;1.73;;;;;;;20.73;100.00;165993.47;4991342;28;20030;-60
2022/08/28 10:44:28;;;;;;;6.53;2.17;;;;;;;21.37;100.00;166160.47;4990567;28;20609;-61
2022/08/28 10:46:57;;;;;;;10.15;2.17;;;;;;;21.75;100.00;166259.66;4991775;28;20117;-60
2022/08/28 10:49:27;;;;;;;6.53;2.53;;;;;;;21.44;100.00;166179.50;4990213;28;20046;-60
2022/08/28 10:52:03;;;;;;;4.82;1.55;;;;;;;20.84;100.00;166021.97;4991770;28;20030;-60
2022/08/28 10:54:35;;;;;;;4.57;1.67;;;;;;;20.50;100.00;165932.34;4990839;28;20076;-60
2022/08/28 10:57:10;;;;;;;5.47;2.03;;;;;;;20.36;100.00;165894.34;4992132;28;20022;-60
2022/08/28 10:59:38;;;;;;;8.05;2.63;;;;;;;20.58;100.00;165954.06;4990540;28;20449;-60
2022/08/28 11:02:07;;;;;;;6.65;2.75;;;;;;;20.83;100.00;166019.25;4992267;28;20023;-60
2022/08/28 11:04:33;;;;;;;6.32;1.98;;;;;;;21.33;100.00;166149.63;4990377;28;20066;-60
2022/08/28 11:07:04;;;;;;;4.75;2.22;;;;;;;21.77;100.00;166266.50;4992318;28;20052;-60
2022/08/28 11:09:35;;;;;;;9.40;1.73;;;;;;;22.31;100.00;166407.75;4990245;28;20069;-60
2022/08/28 11:12:09;;;;;;;4.53;1.98;;;;;;;22.37;100.00;166424.09;4991198;28;20026;-60
2022/08/28 11:14:40;;;;;;;6.45;2.60;;;;;;;22.26;100.00;166395.56;4990214;28;20046;-60
2022/08/28 11:17:24;;;;;;;2.88;2.40;;;;;;;22.29;100.00;166402.34;4992087;28;20030;-60
2022/08/28 11:19:57;;;;;;;8.48;2.55;;;;;;;22.50;100.00;166459.47;4990127;28;20061;-60
2022/08/28 11:22:29;;;;;;;9.00;1.98;;;;;;;22.07;98.95;166345.28;4991858;28;20030;-60
2022/08/28 11:25:13;;;;;;;6.32;2.22;;;;;;;21.32;99.38;166146.91;4989611;28;20505;-60
2022/08/28 11:27:59;;;;;;;2.70;1.38;;;;;;;20.85;100.00;166024.69;4991877;28;20030;-60